Airfield :
LOGIN :

Register | Disclaimer

   EN    FR    IT 

 










Legend :    VFR   Marginal VFR   IFR   Intensive IFR   Very Intensive IFR
Visi :
Ceiling :
>= 8 km
>= 3000ft
5 to 8 km
1000 to 3000 ft
1500m to 5 km
500 to 1000 ft
800 to 1500m
200 to 500 ft
< 800m
< 200 ft
Symbols :   Thunderstorms  Fog  Heavy snow  Heavy precipitations  Wind > 20 kt
SIGMETs :     Misc.  Thunderstorms  Icing  Turbulence  Mountain Waves  Volcanic Ashes







- Airport Elevation : 287 ft
- Download approach charts


LFRL - Lanveoc Poulmic

CURRENT METAR :
  • 210000Z AUTO 12010KT CAVOK 20/07 Q1009

EXPIRED METARs :
  • 202330Z AUTO 12009KT CAVOK 19/07 Q1009
  • 202300Z AUTO 11010KT CAVOK 19/07 Q1010
  • 202230Z AUTO 11010KT CAVOK 19/07 Q1010
  • 202200Z AUTO 11011KT CAVOK 19/07 Q1011
  • 202130Z AUTO 10010KT CAVOK 19/07 Q1011

TAF TAF LFRL
Valid from the 20 at 12:00 until the 21 at 12:00 UTC


201100Z 2012/2112 13010G20KT CAVOK
TEMPO 2106/2109 15015G25KT 4500 -SHRA SCT080TCU
BECMG 2109/2111 BKN010
No reported NOTAMs for that airfield.



MET'MAP, your aeronautical weather chart ! - Copyright ORBIFLY December 2007 - Disclaimer

ORBIFLY MET'MAP TEAM :

Programming & Development : Alexandra Zaïnal
Concept & Development : Baudouin d'Aumeries
Co-Development & Prog : Marc-Olivier Méhu
Technical & hardware support : Manuel Goepfert

Contact : metmap@orbifly.com




SOURCES & CREDITS :

   NOAA